createdAt,value
2023-10-26T00:02:33.684Z,9.17
2023-10-26T00:05:36.538Z,9.24
2023-10-26T00:08:38.953Z,9.43
2023-10-26T00:11:41.572Z,9.28
2023-10-26T00:14:44.123Z,9.14
2023-10-26T00:17:47.062Z,9.06
2023-10-26T00:20:50.427Z,9.04
2023-10-26T00:23:53.108Z,9.01
2023-10-26T00:26:55.616Z,8.93
2023-10-26T00:29:58.351Z,9.09
2023-10-26T00:33:00.887Z,9.09
2023-10-26T00:36:03.779Z,9.18
2023-10-26T00:39:07.509Z,9.34
2023-10-26T00:42:10.256Z,9.45
2023-10-26T00:45:12.736Z,9.58
2023-10-26T00:48:15.520Z,9.80
2023-10-26T00:51:18.221Z,9.95
2023-10-26T00:54:21.431Z,10.08
2023-10-26T00:57:25.437Z,10.14
2023-10-26T01:00:28.501Z,10.20
2023-10-26T01:03:31.604Z,10.31
2023-10-26T01:06:34.593Z,10.33
2023-10-26T01:09:37.166Z,10.40
2023-10-26T01:12:40.279Z,10.44
2023-10-26T01:15:42.816Z,10.45
2023-10-26T01:18:45.455Z,10.50
2023-10-26T01:21:51.984Z,10.64
2023-10-26T01:24:55.980Z,10.71
2023-10-26T01:27:59.163Z,10.78
2023-10-26T01:31:01.880Z,10.84
2023-10-26T01:34:04.730Z,10.90
2023-10-26T01:37:07.725Z,10.91
2023-10-26T01:40:10.630Z,10.93
2023-10-26T01:43:13.252Z,10.82
2023-10-26T01:46:15.612Z,10.98
2023-10-26T01:49:18.391Z,11.03
2023-10-26T01:52:20.841Z,11.04
2023-10-26T01:55:23.735Z,11.07
2023-10-26T01:58:26.147Z,11.09
2023-10-26T02:01:28.790Z,11.13
2023-10-26T02:04:31.480Z,11.16
2023-10-26T02:07:34.582Z,11.19
2023-10-26T02:10:37.549Z,11.23
2023-10-26T02:13:41.171Z,11.29
2023-10-26T02:16:43.867Z,11.37
2023-10-26T02:19:46.201Z,11.44
2023-10-26T02:22:49.151Z,11.53
2023-10-26T02:25:51.516Z,11.66
2023-10-26T02:28:54.504Z,11.76
2023-10-26T02:32:00.164Z,11.87
2023-10-26T02:41:49.182Z,11.92
2023-10-26T02:44:51.930Z,11.92
2023-10-26T02:47:54.392Z,11.99
2023-10-26T02:50:57.859Z,11.94
2023-10-26T02:54:00.308Z,11.89
2023-10-26T02:57:03.036Z,11.93
2023-10-26T03:00:07.160Z,11.97
2023-10-26T03:03:10.633Z,11.94
2023-10-26T03:06:13.262Z,11.83
2023-10-26T03:09:15.982Z,11.79
2023-10-26T03:12:20.145Z,11.76
2023-10-26T03:29:36.792Z,11.56
2023-10-26T03:32:39.235Z,11.57
2023-10-26T03:35:45.057Z,11.62
2023-10-26T03:38:47.279Z,11.66
2023-10-26T03:46:15.037Z,11.71
2023-10-26T03:49:17.665Z,11.73
2023-10-26T03:52:23.215Z,11.73
2023-10-26T03:55:26.271Z,11.74
2023-10-26T03:58:28.713Z,11.68
2023-10-26T04:01:31.404Z,11.56
2023-10-26T04:04:34.484Z,11.48
2023-10-26T04:07:36.948Z,11.46
2023-10-26T04:10:39.628Z,11.39
2023-10-26T04:13:42.091Z,11.37
2023-10-26T04:16:48.773Z,11.37
2023-10-26T04:19:51.150Z,11.30
2023-10-26T04:22:53.791Z,11.25
2023-10-26T04:25:56.148Z,11.20
2023-10-26T04:28:58.806Z,11.05
2023-10-26T04:32:01.173Z,10.90
2023-10-26T04:35:04.564Z,10.80
2023-10-26T04:38:06.972Z,10.77
2023-10-26T04:41:09.646Z,10.76
2023-10-26T04:44:13.047Z,10.63
2023-10-26T04:47:15.812Z,10.41
2023-10-26T04:50:18.186Z,10.30
2023-10-26T04:53:21.444Z,10.15
2023-10-26T04:56:23.801Z,10.07
2023-10-26T04:59:26.636Z,9.98
2023-10-26T05:02:29.033Z,9.89
2023-10-26T05:05:31.738Z,9.84
2023-10-26T05:08:34.192Z,9.82
2023-10-26T05:11:36.852Z,9.79
2023-10-26T05:14:40.274Z,9.74
2023-10-26T05:17:43.000Z,9.68
2023-10-26T05:20:52.332Z,9.89
2023-10-26T05:23:58.197Z,9.86
2023-10-26T05:27:00.650Z,10.04
2023-10-26T05:30:03.887Z,10.02
2023-10-26T05:33:06.396Z,10.03
2023-10-26T05:36:09.381Z,10.00
2023-10-26T05:39:11.890Z,10.08
2023-10-26T05:42:14.645Z,10.19
2023-10-26T05:45:17.126Z,10.19
2023-10-26T05:48:20.903Z,10.22
2023-10-26T05:51:23.430Z,10.26
2023-10-26T05:54:26.220Z,10.32
2023-10-26T05:57:28.786Z,10.47
2023-10-26T06:00:33.164Z,10.50
2023-10-26T06:03:36.191Z,10.57
2023-10-26T06:06:38.877Z,10.68
2023-10-26T06:09:41.754Z,10.81
2023-10-26T06:12:44.189Z,10.95
2023-10-26T06:15:46.824Z,11.05
2023-10-26T06:18:49.246Z,11.08
2023-10-26T06:21:51.929Z,11.22
2023-10-26T06:24:54.332Z,11.91
2023-10-26T06:27:57.001Z,13.92
2023-10-26T06:31:09.598Z,13.14
2023-10-26T06:34:12.508Z,12.62
2023-10-26T06:37:15.047Z,12.33
2023-10-26T06:40:17.772Z,12.08
2023-10-26T06:43:20.245Z,12.10
2023-10-26T06:46:23.320Z,12.23
2023-10-26T06:49:31.016Z,12.39
2023-10-26T06:52:35.886Z,12.37
2023-10-26T06:55:38.294Z,12.38
2023-10-26T06:58:43.425Z,12.48
2023-10-26T07:02:09.009Z,12.55
2023-10-26T07:05:08.987Z,12.49
2023-10-26T07:08:11.407Z,12.53
2023-10-26T07:11:14.222Z,12.48
2023-10-26T07:14:17.098Z,12.74
2023-10-26T07:17:19.737Z,12.92
2023-10-26T07:20:22.168Z,15.22
2023-10-26T07:23:24.820Z,15.91
2023-10-26T07:26:27.385Z,15.76
2023-10-26T07:29:30.372Z,15.38
2023-10-26T07:32:32.844Z,15.02
2023-10-26T07:35:41.526Z,14.38
2023-10-26T07:38:44.008Z,14.18
2023-10-26T07:42:06.410Z,14.69
2023-10-26T07:45:09.588Z,15.67
2023-10-26T07:48:12.696Z,17.91
2023-10-26T07:51:15.231Z,17.68
2023-10-26T07:54:18.918Z,17.30
2023-10-26T07:57:21.687Z,16.35
2023-10-26T08:00:24.341Z,15.65
2023-10-26T08:10:06.696Z,14.64
2023-10-26T08:20:23.861Z,14.61
2023-10-26T08:23:26.009Z,15.04
2023-10-26T08:30:18.355Z,15.18
2023-10-26T08:33:58.543Z,15.20
2023-10-26T08:54:50.728Z,19.25
2023-10-26T08:57:55.132Z,20.04
2023-10-26T09:01:35.476Z,22.04
2023-10-26T09:05:05.317Z,20.91
2023-10-26T09:08:50.914Z,22.64
2023-10-26T09:12:57.997Z,21.25
2023-10-26T09:53:27.976Z,18.78
2023-10-26T09:57:19.378Z,18.18
2023-10-26T10:12:20.081Z,19.02
2023-10-26T10:15:54.162Z,19.30
2023-10-26T10:58:16.106Z,17.68
2023-10-26T11:01:22.421Z,17.76
2023-10-26T11:04:24.891Z,17.63
2023-10-26T11:07:28.765Z,17.64
2023-10-26T11:10:31.888Z,17.59
2023-10-26T11:13:34.556Z,17.48
2023-10-26T11:16:42.449Z,17.67
2023-10-26T11:19:46.225Z,17.77
2023-10-26T11:22:48.758Z,17.90
2023-10-26T11:25:51.533Z,17.93
2023-10-26T11:28:53.994Z,18.22
2023-10-26T11:31:56.664Z,17.95
2023-10-26T11:35:09.774Z,18.00
2023-10-26T11:38:12.404Z,17.87
2023-10-26T11:41:24.763Z,17.78
2023-10-26T11:44:28.677Z,18.00
2023-10-26T11:47:53.913Z,17.95
2023-10-26T11:50:56.761Z,18.26
2023-10-26T11:54:11.761Z,18.30
2023-10-26T11:57:14.508Z,18.05
2023-10-26T12:00:18.266Z,18.25
2023-10-26T12:03:21.032Z,18.35
2023-10-26T12:06:23.603Z,18.43
2023-10-26T12:09:26.304Z,18.29
2023-10-26T12:12:28.939Z,18.05
2023-10-26T12:15:31.786Z,18.18
2023-10-26T12:18:35.543Z,18.13
2023-10-26T12:21:38.288Z,18.20
2023-10-26T12:24:40.705Z,17.98
2023-10-26T12:28:21.024Z,17.87
2023-10-26T12:31:05.910Z,17.71
2023-10-26T12:34:08.712Z,17.57
2023-10-26T12:37:11.822Z,17.61
2023-10-26T12:40:14.708Z,17.60
2023-10-26T12:43:17.149Z,17.43
2023-10-26T12:46:19.837Z,17.40
2023-10-26T12:49:22.456Z,17.26
2023-10-26T12:52:25.156Z,17.04
2023-10-26T12:55:27.522Z,17.02
2023-10-26T12:58:30.199Z,16.88
2023-10-26T13:01:32.670Z,16.97
2023-10-26T13:04:35.355Z,16.96
2023-10-26T13:07:37.836Z,16.88
2023-10-26T13:10:40.618Z,16.98
2023-10-26T13:13:43.141Z,16.87
2023-10-26T13:16:49.373Z,16.66
2023-10-26T13:19:59.633Z,16.62
2023-10-26T13:23:02.350Z,16.49
2023-10-26T13:26:04.700Z,16.45
2023-10-26T13:29:07.514Z,16.42
2023-10-26T13:32:09.956Z,16.43
2023-10-26T13:35:12.955Z,16.49
2023-10-26T13:38:15.437Z,16.54
2023-10-26T13:45:24.804Z,16.60
2023-10-26T13:48:28.563Z,16.67
2023-10-26T13:51:30.983Z,16.62
2023-10-26T13:54:33.743Z,16.59
2023-10-26T13:57:36.143Z,16.56
2023-10-26T14:00:38.935Z,16.50
2023-10-26T14:03:41.965Z,16.44
2023-10-26T14:06:44.435Z,16.39
2023-10-26T14:09:47.919Z,16.32
2023-10-26T14:12:51.183Z,16.22
2023-10-26T14:15:53.829Z,16.12
2023-10-26T14:18:56.295Z,15.98
2023-10-26T14:21:59.070Z,15.84
2023-10-26T14:25:01.484Z,15.71
2023-10-26T14:28:04.371Z,15.61
2023-10-26T14:31:06.982Z,15.52
2023-10-26T14:34:09.750Z,15.45
2023-10-26T14:37:13.131Z,15.36
2023-10-26T14:40:16.131Z,15.27
2023-10-26T14:43:19.704Z,15.20
2023-10-26T14:46:22.523Z,15.12
2023-10-26T14:49:25.467Z,15.03
2023-10-26T14:52:28.235Z,14.99
2023-10-26T14:55:32.778Z,14.94
2023-10-26T14:58:35.512Z,14.85
2023-10-26T15:01:38.014Z,14.80
2023-10-26T15:04:40.768Z,14.72
2023-10-26T15:07:43.200Z,14.70
2023-10-26T15:10:47.043Z,14.63
2023-10-26T15:13:50.092Z,14.57
2023-10-26T15:16:52.834Z,14.55
2023-10-26T15:19:55.269Z,14.43
2023-10-26T15:22:57.961Z,14.41
2023-10-26T15:26:04.869Z,14.38
2023-10-26T15:29:07.505Z,14.41
2023-10-26T15:32:10.071Z,14.30
2023-10-26T15:35:12.759Z,14.16
2023-10-26T15:38:15.152Z,14.15
2023-10-26T15:41:17.791Z,14.24
2023-10-26T15:44:21.651Z,14.16
2023-10-26T15:47:25.496Z,14.04
2023-10-26T15:50:29.722Z,13.98
2023-10-26T15:53:32.590Z,13.94
2023-10-26T15:56:35.143Z,13.95
2023-10-26T15:59:38.108Z,13.90
2023-10-26T16:02:46.052Z,13.84
2023-10-26T16:05:48.872Z,13.82
2023-10-26T16:08:51.240Z,13.83
2023-10-26T16:11:53.923Z,13.80
2023-10-26T16:14:56.277Z,13.79
2023-10-26T16:17:58.963Z,13.73
2023-10-26T16:21:02.563Z,13.69
2023-10-26T16:24:05.586Z,13.71
2023-10-26T16:27:07.922Z,13.76
2023-10-26T16:30:10.856Z,13.72
2023-10-26T16:33:14.478Z,13.75
2023-10-26T16:36:17.129Z,13.68
2023-10-26T16:39:20.166Z,13.77
2023-10-26T16:42:23.506Z,13.76
2023-10-26T16:45:25.933Z,13.73
2023-10-26T16:48:28.667Z,13.82
2023-10-26T16:51:31.051Z,13.82
2023-10-26T16:54:33.703Z,13.82
2023-10-26T16:57:36.252Z,13.77
2023-10-26T17:00:39.141Z,13.90
2023-10-26T17:03:41.662Z,13.84
2023-10-26T17:06:44.471Z,13.78
2023-10-26T17:09:47.164Z,13.73
2023-10-26T17:12:49.939Z,13.69
2023-10-26T17:15:55.360Z,13.63
2023-10-26T17:18:58.132Z,13.59
2023-10-26T17:22:00.526Z,13.59
2023-10-26T17:25:03.673Z,13.50
2023-10-26T17:28:06.143Z,13.44
2023-10-26T17:31:09.172Z,13.36
2023-10-26T17:34:11.881Z,13.27
2023-10-26T17:37:14.567Z,13.21
2023-10-26T17:40:16.999Z,13.09
2023-10-26T17:43:19.672Z,13.02
2023-10-26T17:46:22.529Z,13.05
2023-10-26T17:49:25.289Z,13.01
2023-10-26T17:52:27.624Z,12.83
2023-10-26T17:55:30.509Z,12.95
2023-10-26T17:58:32.897Z,12.86
2023-10-26T18:01:37.764Z,12.80
2023-10-26T18:04:41.247Z,12.69
2023-10-26T18:07:43.620Z,12.64
2023-10-26T18:10:46.272Z,12.51
2023-10-26T18:13:48.697Z,12.46
2023-10-26T18:16:55.452Z,12.41
2023-10-26T18:19:58.801Z,12.70
2023-10-26T18:23:03.050Z,12.58
2023-10-26T18:26:05.470Z,12.49
2023-10-26T18:29:08.429Z,12.46
2023-10-26T18:32:14.023Z,12.45
2023-10-26T18:35:17.048Z,12.39
2023-10-26T18:38:19.736Z,12.30
2023-10-26T18:41:26.908Z,12.16
2023-10-26T18:44:29.649Z,12.13
2023-10-26T18:47:32.414Z,12.02
2023-10-26T18:50:34.998Z,12.05
2023-10-26T18:53:40.042Z,12.11
2023-10-26T18:56:42.742Z,11.91
2023-10-26T18:59:45.815Z,12.09
2023-10-26T19:02:48.444Z,12.19
2023-10-26T19:05:52.077Z,12.10
2023-10-26T19:08:54.473Z,12.02
2023-10-26T19:11:57.424Z,11.90
2023-10-26T19:14:59.817Z,11.85
2023-10-26T19:18:03.934Z,11.84
2023-10-26T19:21:09.040Z,11.66
2023-10-26T19:24:11.985Z,11.67
2023-10-26T19:27:14.425Z,11.54
2023-10-26T19:30:19.523Z,11.51
2023-10-26T19:33:23.510Z,11.54
2023-10-26T19:36:26.778Z,11.47
2023-10-26T19:39:30.549Z,11.43
2023-10-26T19:42:38.941Z,11.45
2023-10-26T19:45:43.404Z,11.48
2023-10-26T19:48:46.584Z,11.29
2023-10-26T19:51:49.518Z,11.24
2023-10-26T19:54:52.566Z,11.25
2023-10-26T19:57:55.326Z,11.35
2023-10-26T20:00:58.321Z,11.24
2023-10-26T20:04:01.548Z,11.23
2023-10-26T20:07:04.767Z,11.20
2023-10-26T20:10:09.311Z,11.12
2023-10-26T20:13:12.250Z,11.15
2023-10-26T20:16:15.619Z,11.14
2023-10-26T20:19:18.307Z,11.22
2023-10-26T20:22:21.098Z,11.16
2023-10-26T20:25:23.772Z,11.28
2023-10-26T20:28:26.418Z,11.14
2023-10-26T20:31:29.454Z,11.02
2023-10-26T20:34:32.506Z,11.09
2023-10-26T20:37:35.481Z,11.14
2023-10-26T20:40:40.918Z,11.12
2023-10-26T20:43:44.465Z,11.20
2023-10-26T20:46:47.245Z,11.01
2023-10-26T20:49:53.116Z,11.04
2023-10-26T20:52:55.799Z,11.01
2023-10-26T20:55:59.177Z,10.98
2023-10-26T20:59:01.820Z,10.98
2023-10-26T21:02:04.742Z,11.12
2023-10-26T21:05:07.775Z,11.04
2023-10-26T21:08:13.520Z,11.05
2023-10-26T21:11:17.644Z,11.04
2023-10-26T21:14:20.089Z,10.99
2023-10-26T21:17:26.057Z,10.91
2023-10-26T21:20:28.473Z,10.94
2023-10-26T21:23:31.292Z,10.89
2023-10-26T21:26:33.686Z,10.92
2023-10-26T21:29:36.367Z,10.89
2023-10-26T21:32:39.782Z,10.88
2023-10-26T21:35:42.494Z,10.92
2023-10-26T21:38:44.930Z,10.92
2023-10-26T21:41:47.583Z,11.02
2023-10-26T21:44:50.007Z,10.95
2023-10-26T21:47:52.669Z,11.01
2023-10-26T21:50:55.028Z,10.99
2023-10-26T21:53:58.192Z,10.90
2023-10-26T21:57:00.564Z,11.01
2023-10-26T22:00:06.655Z,11.06
2023-10-26T22:03:14.951Z,11.16
2023-10-26T22:06:17.614Z,11.32
2023-10-26T22:09:22.168Z,11.16
2023-10-26T22:12:24.996Z,11.08
2023-10-26T22:15:27.420Z,11.09
2023-10-26T22:18:30.210Z,11.08
2023-10-26T22:21:32.548Z,11.20
2023-10-26T22:24:35.336Z,11.23
2023-10-26T22:27:37.723Z,11.27
2023-10-26T22:30:40.397Z,11.31
2023-10-26T22:33:42.742Z,11.32
2023-10-26T22:36:45.412Z,11.29
2023-10-26T22:39:48.399Z,11.24
2023-10-26T22:42:51.130Z,11.14
2023-10-26T22:45:53.799Z,11.18
2023-10-26T22:48:56.497Z,11.30
2023-10-26T22:51:58.836Z,11.17
2023-10-26T22:55:01.695Z,11.16
2023-10-26T22:58:04.201Z,11.17
2023-10-26T23:01:07.137Z,11.20
2023-10-26T23:04:10.145Z,11.30
2023-10-26T23:07:12.955Z,11.34
2023-10-26T23:10:15.452Z,11.32
2023-10-26T23:13:18.202Z,11.27
2023-10-26T23:16:21.271Z,11.18
2023-10-26T23:19:24.068Z,11.16
2023-10-26T23:22:26.503Z,11.27
2023-10-26T23:25:29.228Z,11.32
2023-10-26T23:28:31.706Z,11.34
2023-10-26T23:31:34.378Z,11.32
2023-10-26T23:34:38.674Z,11.28
2023-10-26T23:37:41.654Z,11.28
2023-10-26T23:40:44.518Z,11.32
2023-10-26T23:43:48.745Z,11.35
2023-10-26T23:46:51.210Z,11.46
2023-10-26T23:49:54.275Z,11.42
2023-10-26T23:52:56.659Z,11.54
2023-10-26T23:55:59.443Z,11.64
2023-10-26T23:59:03.616Z,11.69
